Hauptseite
METAR-TAF:

METAR-TAF

Flughäfen :

Flughafen San Salvador

El Salvador, El Salvador

Breite: 13-26N, Länge: 089-03W, Höhe: 25 m

Beobachtung

Neuester Wetterbericht von vor 1 Stunde und 2 Minuten, um 21:50 UTC
Wind 13 kt aus Nord, variierte zwischen Nord/Nordwest und Nord/Nordost
Temperatur 31°C
Luftfeuchtigkeit 43%
Luftdruck 1011 hPa
Sichtweite 10 km oder mehr
Leicht bewölkt in der Höhe von 3700 ft

METAR: MSLP 162150Z 36013KT 330V030 9999 FEW037 31/17 Q1011 A2986 NOSIG

Zeit: 16:52 (22:52 UTC)

Prognose

Neuester Wetterbericht von vor 7 Stunden und 27 Minuten, um 15:25 UTC
Gültige Prognose vom 16 um 18 UTC bis 17 um 18 UTC
Wind 10 kt aus Nord/Nordost, Böen bis zu 20 kt
Sichtweite 10 km oder mehr
keine Wolken unter 1500 m und keine Kumulonimbus oder Gewitterwolken

TAF: MSLP 161525Z 1618/1718 02010G20KT CAVOK TX34/1619Z TN22/1711Z

Wetterbeobachtungen und Prognosen von mehr als 4000 Flughäfen (METAR und TAF Bericht).

Die verfügbaren Stationen werden durch gelbe und rote Markierungen auf der Karte dargestellt.

Führen Sie die Maus auf sie, um den Namen der Station zu sehen.

Darauf klicken, um die Beobachtung von Wetterbeobachtungen und Prognosen zu sehen.

Um die Karte zu ändern : klicken Sie auf den grünen Tasten mit einem schwarzen Kreuz Zum Vergrößern, auf den grünen Button mit einem Gedankenstrich zu verkleinern, oder auf die grünen Pfeile für benachbarte Karten.


METAR-TAF: